createdAt,value
2023-02-23T00:02:09.970Z,14.73
2023-02-23T00:04:38.603Z,13.83
2023-02-23T00:07:07.581Z,14.40
2023-02-23T00:09:36.249Z,13.73
2023-02-23T00:12:08.781Z,13.97
2023-02-23T00:14:38.843Z,13.93
2023-02-23T00:17:14.549Z,14.93
2023-02-23T00:19:44.323Z,14.43
2023-02-23T00:22:13.027Z,13.80
2023-02-23T00:24:43.196Z,14.27
2023-02-23T00:27:17.920Z,14.93
2023-02-23T00:29:49.686Z,14.30
2023-02-23T00:32:20.908Z,14.97
2023-02-23T00:34:50.518Z,15.07
2023-02-23T00:37:19.869Z,13.90
2023-02-23T00:39:52.153Z,14.43
2023-02-23T00:42:22.397Z,13.90
2023-02-23T00:44:51.037Z,14.67
2023-02-23T00:47:19.458Z,15.00
2023-02-23T00:49:51.056Z,14.63
2023-02-23T00:52:20.777Z,15.63
2023-02-23T00:54:49.220Z,16.07
2023-02-23T00:57:17.559Z,16.33
2023-02-23T00:59:47.262Z,15.97
2023-02-23T01:02:17.058Z,15.53
2023-02-23T01:04:45.451Z,16.20
2023-02-23T01:07:13.885Z,16.53
2023-02-23T01:09:42.573Z,15.93
2023-02-23T01:12:12.464Z,14.90
2023-02-23T01:14:42.586Z,15.97
2023-02-23T01:17:13.701Z,15.97
2023-02-23T01:19:42.110Z,16.80
2023-02-23T01:22:10.590Z,15.90
2023-02-23T01:24:40.971Z,16.30
2023-02-23T01:27:09.869Z,15.40
2023-02-23T01:29:38.172Z,16.00
2023-02-23T01:32:06.820Z,15.43
2023-02-23T01:34:36.752Z,15.87
2023-02-23T01:37:05.332Z,15.37
2023-02-23T01:39:34.171Z,15.93
2023-02-23T01:42:05.630Z,15.40
2023-02-23T01:45:22.920Z,16.60
2023-02-23T01:47:53.215Z,15.70
2023-02-23T01:50:26.715Z,15.23
2023-02-23T01:52:56.898Z,16.23
2023-02-23T01:55:29.247Z,16.40
2023-02-23T01:58:15.464Z,16.00
2023-02-23T02:00:47.573Z,16.67
2023-02-23T02:03:29.727Z,16.80
2023-02-23T02:06:02.028Z,16.07
2023-02-23T02:08:32.661Z,16.00
2023-02-23T02:11:01.249Z,15.47
2023-02-23T02:13:32.237Z,15.73
2023-02-23T02:16:36.185Z,15.47
2023-02-23T02:19:29.167Z,16.33
2023-02-23T02:22:30.762Z,15.90
2023-02-23T02:25:35.092Z,15.40
2023-02-23T02:28:45.121Z,15.27
2023-02-23T02:32:01.519Z,15.23
2023-02-23T02:34:58.504Z,15.70
2023-02-23T02:37:56.855Z,15.50
2023-02-23T02:40:32.594Z,15.43
2023-02-23T02:43:10.378Z,15.73
2023-02-23T02:45:50.401Z,14.77
2023-02-23T02:48:42.423Z,15.23
2023-02-23T02:51:20.834Z,16.20
2023-02-23T02:53:54.707Z,15.30
2023-02-23T02:56:26.794Z,15.53
2023-02-23T02:58:56.975Z,15.37
2023-02-23T03:01:43.186Z,15.17
2023-02-23T03:04:40.130Z,15.03
2023-02-23T03:07:34.545Z,14.97
2023-02-23T03:10:30.710Z,15.90
2023-02-23T03:13:29.126Z,16.20
2023-02-23T03:16:27.366Z,14.67
2023-02-23T03:19:25.829Z,15.33
2023-02-23T03:22:18.065Z,15.80
2023-02-23T03:25:11.468Z,15.17
2023-02-23T03:28:07.421Z,15.63
2023-02-23T03:31:03.680Z,14.97
2023-02-23T03:33:56.673Z,14.83
2023-02-23T03:36:46.376Z,15.20
2023-02-23T03:39:42.239Z,14.33
2023-02-23T03:42:32.605Z,15.43
2023-02-23T03:45:24.888Z,15.47
2023-02-23T03:48:14.336Z,14.07
2023-02-23T03:51:05.809Z,15.33
2023-02-23T03:53:59.755Z,15.33
2023-02-23T03:56:49.555Z,14.27
2023-02-23T03:59:39.812Z,13.90
2023-02-23T04:02:29.287Z,14.83
2023-02-23T04:05:18.652Z,14.97
2023-02-23T04:08:06.637Z,14.23
2023-02-23T04:10:54.016Z,14.03
2023-02-23T04:13:26.989Z,14.73
2023-02-23T04:15:57.504Z,13.97
2023-02-23T04:18:30.375Z,14.87
2023-02-23T04:21:00.161Z,15.00
2023-02-23T04:23:29.427Z,14.77
2023-02-23T04:25:58.303Z,13.90
2023-02-23T04:28:28.494Z,14.23
2023-02-23T04:30:57.042Z,14.80
2023-02-23T04:33:27.402Z,14.67
2023-02-23T04:35:56.056Z,14.17
2023-02-23T04:38:24.628Z,14.57
2023-02-23T04:40:53.099Z,14.97
2023-02-23T04:43:21.455Z,14.43
2023-02-23T04:45:49.896Z,14.97
2023-02-23T04:48:18.265Z,15.47
2023-02-23T04:50:47.980Z,14.83
2023-02-23T04:53:16.345Z,15.17
2023-02-23T04:55:47.120Z,15.03
2023-02-23T04:58:15.958Z,14.63
2023-02-23T05:00:44.438Z,14.80
2023-02-23T05:03:12.926Z,14.70
2023-02-23T05:05:41.440Z,15.53
2023-02-23T05:08:11.504Z,15.67
2023-02-23T05:10:40.506Z,14.67
2023-02-23T05:13:08.969Z,14.73
2023-02-23T05:15:38.782Z,15.57
2023-02-23T05:18:08.225Z,15.40
2023-02-23T05:20:36.682Z,15.93
2023-02-23T05:23:05.219Z,16.20
2023-02-23T05:25:34.970Z,16.67
2023-02-23T05:28:03.823Z,17.37
2023-02-23T05:30:33.288Z,15.83
2023-02-23T05:33:01.790Z,16.40
2023-02-23T05:35:30.624Z,16.60
2023-02-23T05:37:58.924Z,15.60
2023-02-23T05:40:27.277Z,15.73
2023-02-23T05:43:01.631Z,15.83
2023-02-23T05:45:30.146Z,16.60
2023-02-23T05:47:59.117Z,16.73
2023-02-23T05:50:27.613Z,17.50
2023-02-23T05:52:56.006Z,16.10
2023-02-23T05:55:24.525Z,16.50
2023-02-23T05:57:53.064Z,16.77
2023-02-23T06:00:23.284Z,16.67
2023-02-23T06:02:54.111Z,16.53
2023-02-23T06:05:22.579Z,18.20
2023-02-23T06:07:50.934Z,16.90
2023-02-23T06:10:19.594Z,15.73
2023-02-23T06:12:47.933Z,16.40
2023-02-23T06:15:16.458Z,16.43
2023-02-23T06:17:46.118Z,15.60
2023-02-23T06:20:15.638Z,16.27
2023-02-23T06:22:43.949Z,14.90
2023-02-23T06:25:13.536Z,15.20
2023-02-23T06:27:43.997Z,16.17
2023-02-23T06:30:14.131Z,15.20
2023-02-23T06:32:42.544Z,17.43
2023-02-23T06:35:15.973Z,15.93
2023-02-23T06:37:45.089Z,15.97
2023-02-23T06:40:13.650Z,16.67
2023-02-23T06:42:42.094Z,15.40
2023-02-23T06:45:11.363Z,14.90
2023-02-23T06:47:40.098Z,15.33
2023-02-23T06:50:09.024Z,15.57
2023-02-23T06:52:39.145Z,15.40
2023-02-23T06:55:09.003Z,15.63
2023-02-23T06:57:37.433Z,16.20
2023-02-23T07:00:06.653Z,16.10
2023-02-23T07:02:37.639Z,16.13
2023-02-23T07:05:06.360Z,15.50
2023-02-23T07:07:34.790Z,16.13
2023-02-23T07:10:04.853Z,15.60
2023-02-23T07:12:33.848Z,15.60
2023-02-23T07:15:02.258Z,15.77
2023-02-23T07:17:30.700Z,15.33
2023-02-23T07:19:59.072Z,15.17
2023-02-23T07:22:30.339Z,15.90
2023-02-23T07:24:58.864Z,15.30
2023-02-23T07:27:28.613Z,16.00
2023-02-23T07:29:56.984Z,16.13
2023-02-23T07:32:25.489Z,15.87
2023-02-23T07:34:54.084Z,15.40
2023-02-23T07:37:22.576Z,15.50
2023-02-23T07:39:51.024Z,16.47
2023-02-23T07:42:19.438Z,16.27
2023-02-23T07:44:49.305Z,15.90
2023-02-23T07:47:17.729Z,15.83
2023-02-23T07:49:46.180Z,14.93
2023-02-23T07:52:18.129Z,14.70
2023-02-23T07:54:46.551Z,15.83
2023-02-23T07:57:15.029Z,15.40
2023-02-23T07:59:43.651Z,15.27
2023-02-23T08:02:15.118Z,14.37
2023-02-23T08:04:44.416Z,14.97
2023-02-23T08:07:12.896Z,15.37
2023-02-23T08:09:41.177Z,14.03
2023-02-23T08:12:10.613Z,15.60
2023-02-23T08:14:38.928Z,14.73
2023-02-23T08:17:07.857Z,14.30
2023-02-23T08:19:37.777Z,15.73
2023-02-23T08:22:08.950Z,16.30
2023-02-23T08:24:39.806Z,14.27
2023-02-23T08:27:08.196Z,16.03
2023-02-23T08:29:36.520Z,15.37
2023-02-23T08:32:06.248Z,15.33
2023-02-23T08:34:40.651Z,15.63
2023-02-23T08:37:10.507Z,16.00
2023-02-23T08:39:39.100Z,15.30
2023-02-23T08:42:07.674Z,14.50
2023-02-23T08:44:36.069Z,14.53
2023-02-23T08:47:04.740Z,15.27
2023-02-23T08:49:33.620Z,27.03
2023-02-23T08:52:03.401Z,18.23
2023-02-23T08:54:31.910Z,16.70
2023-02-23T08:57:00.245Z,15.07
2023-02-23T08:59:28.697Z,15.40
2023-02-23T09:01:57.125Z,13.73
2023-02-23T09:04:25.539Z,14.20
2023-02-23T09:06:54.573Z,14.77
2023-02-23T09:09:24.249Z,15.07
2023-02-23T09:11:52.645Z,15.20
2023-02-23T09:14:21.246Z,15.00
2023-02-23T09:16:49.804Z,14.87
2023-02-23T09:19:18.563Z,15.10
2023-02-23T09:21:47.004Z,15.30
2023-02-23T09:24:18.691Z,14.60
2023-02-23T09:26:48.511Z,13.80
2023-02-23T09:29:17.183Z,13.00
2023-02-23T09:31:45.636Z,13.87
2023-02-23T09:34:14.026Z,13.57
2023-02-23T09:36:42.419Z,14.00
2023-02-23T09:39:10.815Z,14.87
2023-02-23T09:41:57.215Z,14.60
2023-02-23T09:44:45.195Z,14.50
2023-02-23T09:47:27.425Z,14.03
2023-02-23T09:49:59.164Z,14.90
2023-02-23T09:52:36.239Z,15.37
2023-02-23T09:55:05.167Z,15.30
2023-02-23T09:57:39.201Z,15.20
2023-02-23T10:00:17.578Z,14.37
2023-02-23T10:03:00.519Z,13.50
2023-02-23T10:05:33.064Z,15.13
2023-02-23T10:08:07.530Z,13.97
2023-02-23T10:10:43.069Z,14.43
2023-02-23T10:13:21.941Z,14.13
2023-02-23T10:15:55.986Z,14.50
2023-02-23T10:18:45.748Z,14.97
2023-02-23T10:21:18.349Z,15.33
2023-02-23T10:23:51.768Z,16.27
2023-02-23T10:26:23.586Z,15.93
2023-02-23T10:28:56.023Z,16.00
2023-02-23T10:31:37.857Z,14.10
2023-02-23T10:34:14.460Z,14.80
2023-02-23T10:36:49.382Z,15.40
2023-02-23T10:39:17.989Z,13.47
2023-02-23T10:41:46.843Z,15.10
2023-02-23T10:44:21.575Z,15.83
2023-02-23T10:46:55.897Z,15.30
2023-02-23T10:49:30.334Z,15.10
2023-02-23T10:52:03.178Z,15.27
2023-02-23T10:54:44.032Z,15.30
2023-02-23T10:57:20.625Z,15.40
2023-02-23T11:00:09.296Z,15.17
2023-02-23T11:02:38.066Z,15.17
2023-02-23T11:05:07.767Z,14.10
2023-02-23T11:07:36.227Z,13.10
2023-02-23T11:10:27.562Z,14.80
2023-02-23T11:12:55.941Z,14.10
2023-02-23T11:15:48.575Z,14.63
2023-02-23T11:18:23.352Z,18.83
2023-02-23T11:20:52.465Z,15.07
2023-02-23T11:23:29.403Z,15.43
2023-02-23T11:26:03.611Z,15.97
2023-02-23T11:28:34.913Z,15.80
2023-02-23T11:31:10.559Z,16.20
2023-02-23T11:33:41.075Z,14.27
2023-02-23T11:36:19.141Z,15.03
2023-02-23T11:38:48.075Z,15.43
2023-02-23T11:41:23.130Z,14.83
2023-02-23T11:43:52.254Z,15.03
2023-02-23T11:46:23.514Z,15.53
2023-02-23T11:48:56.108Z,15.43
2023-02-23T11:51:27.646Z,19.40
2023-02-23T11:53:56.506Z,17.00
2023-02-23T11:56:26.771Z,15.67
2023-02-23T11:58:57.816Z,15.67
2023-02-23T12:01:41.894Z,15.53
2023-02-23T12:04:11.892Z,16.10
2023-02-23T12:06:44.579Z,15.63
2023-02-23T12:09:21.623Z,15.37
2023-02-23T12:11:56.820Z,14.43
2023-02-23T12:14:32.864Z,16.03
2023-02-23T12:17:07.758Z,15.57
2023-02-23T12:19:41.828Z,15.43
2023-02-23T12:22:15.300Z,15.53
2023-02-23T12:24:49.222Z,16.13
2023-02-23T12:27:22.582Z,15.57
2023-02-23T12:30:06.814Z,15.60
2023-02-23T12:32:46.695Z,16.03
2023-02-23T12:35:19.251Z,15.87
2023-02-23T12:37:54.157Z,15.80
2023-02-23T12:40:28.491Z,15.83
2023-02-23T12:43:03.855Z,15.60
2023-02-23T12:45:38.427Z,17.00
2023-02-23T12:48:18.431Z,15.77
2023-02-23T12:50:53.077Z,15.87
2023-02-23T12:53:26.416Z,15.07
2023-02-23T12:56:13.484Z,15.20
2023-02-23T12:58:48.444Z,15.27
2023-02-23T13:01:24.760Z,14.47
2023-02-23T13:04:23.637Z,15.03
2023-02-23T13:06:59.829Z,22.00
2023-02-23T13:09:44.736Z,19.70
2023-02-23T13:12:27.173Z,22.10
2023-02-23T13:15:02.826Z,18.10
2023-02-23T13:17:39.954Z,19.87
2023-02-23T13:20:15.659Z,18.00
2023-02-23T13:22:50.478Z,16.50
2023-02-23T13:25:30.405Z,17.23
2023-02-23T13:28:02.092Z,16.17
2023-02-23T13:30:33.618Z,16.43
2023-02-23T13:33:20.102Z,14.77
2023-02-23T13:35:48.548Z,14.63
2023-02-23T13:38:24.765Z,15.13
2023-02-23T13:41:00.891Z,15.03
2023-02-23T13:43:35.400Z,16.13
2023-02-23T13:46:32.228Z,17.10
2023-02-23T13:49:12.681Z,16.30
2023-02-23T13:51:44.416Z,15.60
2023-02-23T13:54:26.433Z,17.13
2023-02-23T13:56:58.046Z,20.10
2023-02-23T13:59:30.231Z,17.60
2023-02-23T14:02:01.774Z,15.93
2023-02-23T14:04:36.728Z,15.63
2023-02-23T14:07:18.857Z,14.97
2023-02-23T14:09:55.156Z,15.23
2023-02-23T14:12:27.894Z,16.10
2023-02-23T14:14:56.261Z,16.93
2023-02-23T14:17:42.722Z,15.90
2023-02-23T14:20:36.436Z,15.10
2023-02-23T14:23:18.596Z,16.33
2023-02-23T14:25:56.940Z,14.40
2023-02-23T14:28:34.539Z,15.23
2023-02-23T14:31:17.269Z,14.53
2023-02-23T14:33:54.043Z,13.93
2023-02-23T14:36:37.936Z,14.60
2023-02-23T14:39:11.391Z,13.87
2023-02-23T14:41:50.347Z,15.20
2023-02-23T14:44:29.462Z,15.03
2023-02-23T14:47:04.286Z,14.77
2023-02-23T14:49:37.000Z,14.30
2023-02-23T14:52:10.972Z,14.90
2023-02-23T14:54:41.038Z,14.83
2023-02-23T14:57:20.019Z,15.00
2023-02-23T14:59:55.117Z,14.97
2023-02-23T15:02:25.362Z,15.37
2023-02-23T15:04:54.279Z,15.77
2023-02-23T15:07:33.511Z,14.87
2023-02-23T15:10:06.502Z,16.30
2023-02-23T15:12:39.673Z,16.00
2023-02-23T15:15:18.172Z,14.67
2023-02-23T15:17:49.115Z,14.30
2023-02-23T15:20:19.524Z,15.60
2023-02-23T15:22:53.964Z,17.60
2023-02-23T15:25:26.113Z,15.40
2023-02-23T15:27:56.179Z,15.80
2023-02-23T15:30:31.130Z,15.10
2023-02-23T15:33:04.866Z,15.77
2023-02-23T15:35:42.454Z,14.43
2023-02-23T15:38:17.814Z,18.07
2023-02-23T15:40:58.675Z,20.07
2023-02-23T15:43:29.926Z,17.30
2023-02-23T15:46:03.624Z,15.57
2023-02-23T15:48:45.997Z,15.63
2023-02-23T15:51:28.269Z,16.33
2023-02-23T15:53:56.988Z,18.20
2023-02-23T15:56:28.217Z,20.50
2023-02-23T15:59:02.825Z,18.37
2023-02-23T16:01:32.914Z,20.03
2023-02-23T16:04:03.815Z,20.87
2023-02-23T16:06:35.642Z,20.77
2023-02-23T16:09:22.083Z,19.50
2023-02-23T16:11:53.111Z,17.57
2023-02-23T16:14:24.678Z,16.03
2023-02-23T16:17:08.700Z,15.03
2023-02-23T16:19:41.612Z,15.17
2023-02-23T16:22:21.449Z,16.30
2023-02-23T16:24:56.430Z,16.40
2023-02-23T16:27:26.816Z,15.87
2023-02-23T16:30:03.969Z,14.67
2023-02-23T16:32:39.449Z,16.07
2023-02-23T16:35:17.373Z,17.47
2023-02-23T16:37:58.706Z,16.50
2023-02-23T16:40:27.395Z,21.27
2023-02-23T16:42:59.520Z,20.00
2023-02-23T16:45:29.840Z,17.97
2023-02-23T16:48:02.635Z,16.60
2023-02-23T16:50:33.747Z,18.17
2023-02-23T16:53:03.678Z,16.83
2023-02-23T16:55:39.417Z,16.27
2023-02-23T16:58:12.737Z,16.40
2023-02-23T17:00:42.731Z,19.13
2023-02-23T17:03:20.361Z,22.43
2023-02-23T17:05:48.960Z,18.33
2023-02-23T17:08:17.774Z,17.40
2023-02-23T17:10:48.913Z,19.07
2023-02-23T17:13:19.976Z,17.83
2023-02-23T17:15:53.841Z,17.43
2023-02-23T17:20:53.780Z,17.03
2023-02-23T17:23:26.123Z,16.10
2023-02-23T17:25:56.060Z,17.80
2023-02-23T17:28:25.958Z,17.37
2023-02-23T17:30:55.908Z,18.03
2023-02-23T17:33:25.309Z,18.10
2023-02-23T17:35:53.831Z,17.67
2023-02-23T17:38:23.315Z,17.07
2023-02-23T17:40:51.689Z,16.97
2023-02-23T17:43:22.558Z,16.63
2023-02-23T17:45:51.602Z,16.47
2023-02-23T17:48:21.501Z,17.10
2023-02-23T17:50:50.102Z,16.10
2023-02-23T17:53:18.392Z,15.60
2023-02-23T17:55:47.701Z,17.13
2023-02-23T17:58:16.015Z,15.70
2023-02-23T18:00:44.706Z,15.17
2023-02-23T18:03:13.067Z,14.97
2023-02-23T18:05:43.366Z,17.23
2023-02-23T18:08:11.861Z,16.50
2023-02-23T18:10:40.192Z,17.00
2023-02-23T18:13:08.648Z,16.03
2023-02-23T18:15:37.042Z,16.47
2023-02-23T18:18:05.529Z,16.20
2023-02-23T18:20:33.911Z,16.40
2023-02-23T18:23:03.558Z,16.70
2023-02-23T18:25:32.122Z,18.30
2023-02-23T18:28:00.457Z,16.93
2023-02-23T18:30:28.873Z,17.83
2023-02-23T18:33:00.526Z,18.17
2023-02-23T18:35:29.108Z,18.10
2023-02-23T18:37:57.568Z,17.60
2023-02-23T18:40:28.055Z,16.70
2023-02-23T18:42:58.177Z,17.77
2023-02-23T18:45:27.062Z,18.13
2023-02-23T18:47:56.215Z,18.33
2023-02-23T18:50:26.390Z,18.13
2023-02-23T18:52:56.651Z,16.70
2023-02-23T18:55:26.937Z,17.03
2023-02-23T18:57:55.380Z,17.60
2023-02-23T19:00:24.531Z,17.57
2023-02-23T19:02:53.857Z,18.03
2023-02-23T19:05:22.769Z,17.70
2023-02-23T19:07:51.332Z,16.80
2023-02-23T19:10:19.961Z,17.60
2023-02-23T19:12:49.681Z,17.67
2023-02-23T19:15:18.134Z,17.27
2023-02-23T19:17:47.541Z,17.03
2023-02-23T19:20:15.988Z,17.23
2023-02-23T19:22:45.535Z,19.10
2023-02-23T19:25:15.418Z,18.53
2023-02-23T19:27:44.166Z,17.23
2023-02-23T19:30:14.980Z,16.87
2023-02-23T19:32:44.396Z,16.23
2023-02-23T19:35:15.839Z,15.87
2023-02-23T19:37:49.770Z,15.97
2023-02-23T19:40:20.920Z,14.80
2023-02-23T19:42:50.009Z,16.17
2023-02-23T19:45:20.197Z,16.53
2023-02-23T19:47:48.617Z,16.20
2023-02-23T19:50:19.049Z,16.17
2023-02-23T19:52:48.102Z,16.23
2023-02-23T19:55:17.074Z,16.90
2023-02-23T19:57:45.439Z,16.87
2023-02-23T20:00:14.641Z,17.17
2023-02-23T20:02:44.425Z,15.67
2023-02-23T20:05:14.295Z,16.83
2023-02-23T20:07:43.158Z,16.90
2023-02-23T20:10:16.380Z,17.37
2023-02-23T20:12:45.258Z,16.83
2023-02-23T20:15:15.511Z,15.40
2023-02-23T20:17:45.260Z,15.07
2023-02-23T20:20:14.341Z,15.50
2023-02-23T20:22:43.348Z,14.87
2023-02-23T20:25:15.893Z,16.20
2023-02-23T20:27:45.322Z,16.03
2023-02-23T20:30:14.621Z,16.23
2023-02-23T20:32:45.054Z,16.43
2023-02-23T20:35:15.441Z,17.07
2023-02-23T20:37:44.070Z,15.87
2023-02-23T20:40:18.806Z,22.20
2023-02-23T20:42:49.001Z,24.83
2023-02-23T20:45:20.096Z,19.00
2023-02-23T20:47:53.238Z,19.87
2023-02-23T20:50:25.447Z,18.07
2023-02-23T20:52:53.852Z,18.40
2023-02-23T20:55:27.290Z,18.07
2023-02-23T20:57:56.786Z,17.87
2023-02-23T21:00:33.124Z,17.83
2023-02-23T21:03:05.245Z,17.63
2023-02-23T21:05:40.309Z,18.10
2023-02-23T21:08:09.752Z,18.73
2023-02-23T21:10:40.229Z,17.83
2023-02-23T21:13:11.622Z,18.10
2023-02-23T21:15:41.397Z,18.60
2023-02-23T21:18:12.008Z,17.90
2023-02-23T21:20:41.011Z,17.77
2023-02-23T21:23:09.475Z,16.87
2023-02-23T21:25:38.499Z,17.23
2023-02-23T21:28:07.585Z,16.77
2023-02-23T21:30:35.934Z,15.40
2023-02-23T21:33:04.532Z,15.07
2023-02-23T21:35:38.441Z,15.70
2023-02-23T21:38:08.370Z,15.73
2023-02-23T21:40:42.183Z,17.13
2023-02-23T21:43:13.093Z,15.60
2023-02-23T21:45:46.712Z,16.70
2023-02-23T21:48:15.450Z,16.63
2023-02-23T21:50:45.129Z,16.60
2023-02-23T21:53:13.538Z,16.67
2023-02-23T21:55:41.977Z,16.63
2023-02-23T21:58:12.304Z,16.67
2023-02-23T22:00:40.727Z,16.60
2023-02-23T22:03:09.717Z,16.50
2023-02-23T22:05:38.077Z,17.47
2023-02-23T22:08:08.098Z,17.93
2023-02-23T22:10:36.545Z,18.07
2023-02-23T22:13:04.871Z,17.73
2023-02-23T22:15:34.053Z,17.33
2023-02-23T22:18:02.426Z,17.17
2023-02-23T22:20:30.746Z,17.50
2023-02-23T22:22:59.034Z,17.10
2023-02-23T22:25:28.695Z,16.83
2023-02-23T22:27:57.045Z,18.00
2023-02-23T22:30:26.122Z,18.30
2023-02-23T22:32:54.671Z,18.03
2023-02-23T22:35:23.128Z,17.73
2023-02-23T22:37:51.570Z,18.10
2023-02-23T22:40:20.039Z,18.13
2023-02-23T22:42:49.824Z,20.17
2023-02-23T22:45:20.298Z,19.87
2023-02-23T22:47:48.769Z,19.37
2023-02-23T22:50:19.261Z,19.00
2023-02-23T22:52:48.577Z,18.63
2023-02-23T22:55:18.323Z,19.87
2023-02-23T22:57:47.727Z,19.33
2023-02-23T23:00:19.998Z,18.23
2023-02-23T23:02:48.403Z,18.67
2023-02-23T23:05:17.738Z,18.70
2023-02-23T23:07:47.890Z,17.77
2023-02-23T23:10:17.861Z,18.57
2023-02-23T23:12:46.699Z,17.60
2023-02-23T23:15:17.437Z,17.13
2023-02-23T23:17:49.436Z,17.93
2023-02-23T23:20:23.291Z,18.07
2023-02-23T23:22:51.791Z,18.20
2023-02-23T23:25:23.211Z,18.67
2023-02-23T23:27:53.705Z,18.27
2023-02-23T23:30:26.164Z,19.27
2023-02-23T23:32:56.276Z,20.60
2023-02-23T23:35:26.072Z,19.33
2023-02-23T23:37:54.636Z,18.63
2023-02-23T23:40:24.866Z,18.87
2023-02-23T23:42:55.472Z,18.17
2023-02-23T23:45:25.339Z,19.13
2023-02-23T23:47:55.195Z,20.03
2023-02-23T23:50:27.210Z,19.43
2023-02-23T23:52:57.195Z,20.03
2023-02-23T23:55:31.544Z,19.43
2023-02-23T23:58:00.762Z,20.67
